^^
Station Historical Data
Daily Summary for August 14, 2017 Units:  English    Metric   Both
« Previous Day
Next Day »
Daily Weekly Monthly Yearly Custom
  High: Low: Average:
Temperature: 83.5 °F 65.5 °F 73.9 °F
Dew Point: 75.0 °F 64.9 °F 69.9 °F
Humidity: 99% 67% 88%
Wind Speed: 2.0mph 0.0mph 0mph
Wind Gust: 3.0mph - -
Wind- - SSE
Pressure: 30.06 in 29.93 in -
Precipitation: 0.00 in    
Historical Graphs
 
 
Tabular Data for August 14, 2017
Time Temperature Dew Point Pressure Wind Wind Speed Wind Gust Humidity Rainfall Rate (Hourly)
00:04 71.2 °F 70.0 °F 30.05 in Calm     96% 0.00 in
00:09 71.2 °F 70.3 °F 30.05 in Calm     97% 0.00 in
00:14 71.2 °F 70.3 °F 30.05 in Calm     97% 0.00 in
00:19 71.2 °F 70.3 °F 30.04 in Calm     97% 0.00 in
00:24 71.1 °F 69.8 °F 30.04 in Calm     96% 0.00 in
00:29 71.1 °F 69.8 °F 30.04 in Calm     96% 0.00 in
00:35 70.9 °F 69.6 °F 30.04 in Calm     96% 0.00 in
00:40 70.7 °F 69.4 °F 30.04 in Calm     96% 0.00 in
00:45 70.5 °F 69.1 °F 30.04 in Calm     95% 0.00 in
00:50 70.5 °F 69.1 °F 30.04 in Calm   1.0 mph 95% 0.00 in
00:55 70.5 °F 69.1 °F 30.04 in Calm     95% 0.00 in
01:00 70.5 °F 69.1 °F 30.04 in Calm     95% 0.00 in
01:05 70.5 °F 69.1 °F 30.04 in Calm     95% 0.00 in
01:10 70.3 °F 69.1 °F 30.04 in Calm     96% 0.00 in
01:15 70.2 °F 68.9 °F 30.03 in Calm   1.0 mph 96% 0.00 in
01:20 70.2 °F 68.9 °F 30.04 in Calm     96% 0.00 in
01:25 70.0 °F 68.7 °F 30.03 in Calm     96% 0.00 in
01:30 69.8 °F 68.5 °F 30.03 in Calm     96% 0.00 in
01:35 69.6 °F 68.4 °F 30.03 in Calm     96% 0.00 in
01:40 69.4 °F 68.2 °F 30.03 in Calm     96% 0.00 in
01:45 69.4 °F 68.2 °F 30.03 in Calm     96% 0.00 in
01:50 69.3 °F 68.0 °F 30.02 in Calm     96% 0.00 in
01:55 69.3 °F 68.4 °F 30.02 in Calm     97% 0.00 in
02:00 69.3 °F 68.4 °F 30.02 in Calm     97% 0.00 in
02:05 69.3 °F 68.0 °F 30.02 in Calm     96% 0.00 in
02:10 69.1 °F 67.8 °F 30.02 in Calm     96% 0.00 in
02:15 68.9 °F 68.0 °F 30.02 in Calm     97% 0.00 in
02:20 68.9 °F 68.0 °F 30.01 in Calm     97% 0.00 in
02:25 68.7 °F 67.8 °F 30.01 in Calm     97% 0.00 in
02:30 68.7 °F 67.8 °F 30.01 in Calm   1.0 mph 97% 0.00 in
02:35 68.7 °F 67.8 °F 30.01 in Calm     97% 0.00 in
02:40 68.7 °F 67.8 °F 30.01 in Calm   1.0 mph 97% 0.00 in
02:46 68.7 °F 67.8 °F 30.01 in Calm     97% 0.00 in
02:51 68.5 °F 67.6 °F 30.01 in Calm     97% 0.00 in
02:56 68.5 °F 67.6 °F 30.01 in Calm     97% 0.00 in
03:01 68.4 °F 67.5 °F 30.01 in Calm     97% 0.00 in
03:06 68.4 °F 67.5 °F 30.01 in Calm     97% 0.00 in
03:11 68.2 °F 67.3 °F 30.01 in Calm     97% 0.00 in
03:16 68.2 °F 67.3 °F 30.01 in Calm     97% 0.00 in
03:21 68.2 °F 67.3 °F 30.01 in Calm     97% 0.00 in
03:26 68.0 °F 67.1 °F 30.01 in Calm     97% 0.00 in
03:31 68.0 °F 67.1 °F 30.01 in Calm     97% 0.00 in
03:36 67.8 °F 66.9 °F 30.01 in Calm     97% 0.00 in
03:41 67.8 °F 66.9 °F 30.01 in Calm     97% 0.00 in
03:46 67.6 °F 67.1 °F 30.01 in Calm     98% 0.00 in
03:51 67.6 °F 67.1 °F 30.01 in Calm     98% 0.00 in
03:56 67.6 °F 67.1 °F 30.01 in Calm     98% 0.00 in
04:01 67.6 °F 67.1 °F 30.01 in Calm     98% 0.00 in
04:06 67.6 °F 67.1 °F 30.01 in Calm     98% 0.00 in
04:11 67.5 °F 66.9 °F 30.02 in Calm     98% 0.00 in
04:16 67.5 °F 66.9 °F 30.02 in Calm     98% 0.00 in
04:21 67.5 °F 66.9 °F 30.02 in Calm     98% 0.00 in
04:26 67.3 °F 66.7 °F 30.02 in Calm     98% 0.00 in
04:31 67.1 °F 66.6 °F 30.02 in Calm     98% 0.00 in
04:36 67.1 °F 66.6 °F 30.01 in Calm     98% 0.00 in
04:41 67.1 °F 66.6 °F 30.01 in Calm   1.0 mph 98% 0.00 in
04:46 66.9 °F 66.4 °F 30.01 in Calm     98% 0.00 in
04:51 66.9 °F 66.4 °F 30.02 in Calm   1.0 mph 98% 0.00 in
04:56 66.9 °F 66.4 °F 30.02 in Calm     98% 0.00 in
05:01 66.7 °F 66.2 °F 30.02 in Calm     98% 0.00 in
05:06 66.7 °F 66.2 °F 30.02 in Calm     98% 0.00 in
05:11 66.6 °F 66.0 °F 30.03 in Calm     98% 0.00 in
05:16 66.6 °F 66.0 °F 30.02 in Calm     98% 0.00 in
05:22 66.4 °F 65.8 °F 30.02 in Calm     98% 0.00 in
05:27 66.4 °F 65.8 °F 30.02 in Calm     98% 0.00 in
05:32 66.4 °F 65.8 °F 30.03 in Calm     98% 0.00 in
05:37 66.6 °F 66.0 °F 30.03 in Calm     98% 0.00 in
05:42 66.4 °F 65.8 °F 30.03 in Calm     98% 0.00 in
05:47 66.4 °F 65.8 °F 30.03 in Calm     98% 0.00 in
05:52 66.4 °F 65.8 °F 30.04 in Calm     98% 0.00 in
05:53 66.4 °F 65.8 °F 30.03 in Calm     98% 0.00 in
05:58 66.2 °F 65.7 °F 30.04 in Calm     98% 0.00 in
06:03 66.0 °F 65.5 °F 30.04 in Calm     98% 0.00 in
06:08 66.0 °F 65.5 °F 30.03 in Calm     98% 0.00 in
06:13 66.0 °F 65.5 °F 30.03 in Calm     98% 0.00 in
06:18 65.8 °F 65.3 °F 30.03 in Calm     98% 0.00 in
06:23 65.8 °F 65.5 °F 30.03 in Calm     99% 0.00 in
06:28 65.8 °F 65.5 °F 30.04 in Calm     99% 0.00 in
06:33 65.7 °F 65.1 °F 30.04 in Calm     98% 0.00 in
06:38 65.7 °F 65.1 °F 30.04 in Calm     98% 0.00 in
06:43 65.7 °F 65.3 °F 30.05 in Calm     99% 0.00 in
06:48 65.7 °F 65.3 °F 30.05 in Calm     99% 0.00 in
06:53 65.5 °F 65.1 °F 30.05 in Calm     99% 0.00 in
06:58 65.5 °F 64.9 °F 30.05 in Calm     98% 0.00 in
07:03 65.5 °F 65.1 °F 30.05 in Calm     99% 0.00 in
07:08 65.5 °F 65.1 °F 30.05 in Calm     99% 0.00 in
07:13 65.5 °F 65.1 °F 30.05 in Calm     99% 0.00 in
07:18 65.7 °F 65.3 °F 30.05 in Calm     99% 0.00 in
07:23 65.7 °F 65.3 °F 30.05 in Calm     99% 0.00 in
07:28 65.7 °F 65.3 °F 30.06 in Calm     99% 0.00 in
07:33 65.8 °F 65.5 °F 30.06 in Calm     99% 0.00 in
07:38 66.0 °F 65.7 °F 30.06 in Calm     99% 0.00 in
07:43 66.2 °F 65.8 °F 30.06 in Calm     99% 0.00 in
07:48 66.4 °F 66.0 °F 30.06 in Calm     99% 0.00 in
07:53 66.4 °F 66.0 °F 30.05 in Calm     99% 0.00 in
07:58 66.4 °F 66.0 °F 30.05 in Calm     99% 0.00 in
08:03 66.4 °F 66.0 °F 30.05 in Calm     99% 0.00 in
08:09 66.6 °F 66.2 °F 30.05 in Calm     99% 0.00 in
08:14 66.7 °F 66.4 °F 30.05 in Calm     99% 0.00 in
08:19 66.7 °F 66.4 °F 30.05 in Calm     99% 0.00 in
08:24 66.7 °F 66.4 °F 30.05 in Calm     99% 0.00 in
08:29 66.9 °F 66.6 °F 30.05 in Calm     99% 0.00 in
08:34 67.1 °F 66.7 °F 30.05 in Calm     99% 0.00 in
08:39 67.3 °F 66.9 °F 30.05 in Calm     99% 0.00 in
08:44 67.3 °F 66.9 °F 30.05 in Calm     99% 0.00 in
08:49 67.5 °F 67.1 °F 30.05 in Calm     99% 0.00 in
08:54 67.6 °F 67.3 °F 30.05 in ESE 0.9 mph 1.0 mph 99% 0.00 in
08:59 67.6 °F 67.3 °F 30.06 in Calm   1.0 mph 99% 0.00 in
09:04 68.2 °F 67.8 °F 30.05 in Calm     99% 0.00 in
09:09 68.5 °F 68.2 °F 30.06 in Calm   1.0 mph 99% 0.00 in
09:14 68.7 °F 68.2 °F 30.06 in Calm   1.0 mph 98% 0.00 in
09:19 69.1 °F 68.2 °F 30.06 in Calm     97% 0.00 in
09:24 69.3 °F 68.4 °F 30.06 in Calm     97% 0.00 in
09:29 69.6 °F 68.7 °F 30.05 in Calm     97% 0.00 in
09:35 69.8 °F 68.9 °F 30.06 in Calm     97% 0.00 in
09:40 70.0 °F 69.1 °F 30.06 in Calm     97% 0.00 in
09:45 70.2 °F 68.9 °F 30.05 in Calm     96% 0.00 in
09:50 70.3 °F 69.1 °F 30.05 in Calm     96% 0.00 in
09:55 70.5 °F 69.1 °F 30.05 in Calm     95% 0.00 in
10:00 70.9 °F 69.4 °F 30.05 in Calm   1.0 mph 95% 0.00 in
10:05 71.1 °F 69.3 °F 30.05 in Calm   1.0 mph 94% 0.00 in
10:10 71.6 °F 69.4 °F 30.05 in Calm     93% 0.00 in
10:15 72.3 °F 70.2 °F 30.05 in Calm     93% 0.00 in
10:20 73.2 °F 71.1 °F 30.04 in Calm     93% 0.00 in
10:25 73.6 °F 69.4 °F 30.04 in ESE 0.9 mph 1.0 mph 87% 0.00 in
10:30 73.2 °F 69.1 °F 30.04 in Calm     87% 0.00 in
10:35 73.6 °F 69.8 °F 30.03 in Calm     88% 0.00 in
10:40 73.8 °F 70.3 °F 30.04 in Calm     89% 0.00 in
10:45 74.1 °F 71.1 °F 30.03 in Calm     90% 0.00 in
10:50 74.1 °F 70.3 °F 30.03 in Calm   1.0 mph 88% 0.00 in
10:55 74.5 °F 70.7 °F 30.03 in Calm     88% 0.00 in
11:00 74.8 °F 71.1 °F 30.03 in Calm     88% 0.00 in
11:05 75.6 °F 72.1 °F 30.03 in East 0.9 mph 1.0 mph 89% 0.00 in
11:10 76.1 °F 72.7 °F 30.03 in SE 2.0 mph 2.0 mph 89% 0.00 in
11:15 76.3 °F 71.1 °F 30.03 in Calm     84% 0.00 in
11:20 76.6 °F 72.1 °F 30.02 in Calm     86% 0.00 in
11:25 77.0 °F 72.1 °F 30.02 in Calm     85% 0.00 in
11:30 77.4 °F 71.4 °F 30.02 in Calm   2.0 mph 82% 0.00 in
11:35 77.7 °F 72.9 °F 30.02 in Calm   1.0 mph 85% 0.00 in
11:40 78.8 °F 74.3 °F 30.01 in East 0.9 mph 1.0 mph 86% 0.00 in
11:45 79.7 °F 73.8 °F 30.01 in East 0.9 mph 2.0 mph 82% 0.00 in
11:50 80.8 °F 73.2 °F 30.02 in Calm     78% 0.00 in
11:55 81.9 °F 74.3 °F 30.02 in Calm     78% 0.00 in
12:00 82.8 °F 73.6 °F 30.01 in Calm     74% 0.00 in
12:05 83.1 °F 73.9 °F 30.02 in Calm     74% 0.00 in
12:10 82.6 °F 72.7 °F 30.02 in Calm     72% 0.00 in
12:15 82.6 °F 73.4 °F 30.02 in Calm     74% 0.00 in
12:21 82.0 °F 72.9 °F 30.02 in Calm     74% 0.00 in
12:26 81.3 °F 72.7 °F 30.01 in Calm     75% 0.00 in
12:31 81.0 °F 72.0 °F 30.01 in Calm     74% 0.00 in
12:36 80.8 °F 72.5 °F 30.01 in Calm     76% 0.00 in
12:41 81.0 °F 71.1 °F 30.01 in Calm     72% 0.00 in
12:46 81.3 °F 72.3 °F 30.01 in Calm     74% 0.00 in
12:51 81.7 °F 72.1 °F 30.01 in Calm     73% 0.00 in
12:56 82.0 °F 73.8 °F 30.01 in Calm   1.0 mph 76% 0.00 in
13:01 82.2 °F 73.6 °F 30.00 in Calm     75% 0.00 in
13:06 82.4 °F 71.2 °F 30.00 in Calm   2.0 mph 69% 0.00 in
13:11 82.2 °F 72.0 °F 30.00 in Calm     71% 0.00 in
13:16 82.2 °F 71.4 °F 30.00 in Calm     70% 0.00 in
13:21 82.4 °F 72.9 °F 29.99 in Calm   1.0 mph 73% 0.00 in
13:26 82.6 °F 72.7 °F 29.99 in Calm     72% 0.00 in
13:31 82.6 °F 73.4 °F 29.99 in Calm     74% 0.00 in
13:36 82.9 °F 73.8 °F 29.98 in Calm   1.0 mph 74% 0.00 in
13:42 83.1 °F 72.0 °F 29.98 in Calm   1.0 mph 69% 0.00 in
13:47 83.5 °F 73.6 °F 29.98 in East 0.9 mph 1.0 mph 72% 0.00 in
13:52 83.1 °F 73.9 °F 29.98 in Calm   1.0 mph 74% 0.00 in
13:57 83.1 °F 72.0 °F 29.98 in Calm   1.0 mph 69% 0.00 in
14:02 82.9 °F 72.1 °F 29.98 in Calm     70% 0.00 in
14:07 82.9 °F 73.0 °F 29.98 in Calm   1.0 mph 72% 0.00 in
14:12 82.9 °F 70.9 °F 29.98 in Calm   1.0 mph 67% 0.00 in
14:17 82.9 °F 72.5 °F 29.98 in Calm   1.0 mph 71% 0.00 in
14:22 83.1 °F 73.6 °F 29.97 in Calm     73% 0.00 in
14:27 83.1 °F 73.6 °F 29.97 in SE 0.9 mph 1.0 mph 73% 0.00 in
14:32 82.9 °F 75.0 °F 29.97 in Calm   1.0 mph 77% 0.00 in
14:37 82.8 °F 71.6 °F 29.96 in Calm   1.0 mph 69% 0.00 in
14:42 82.8 °F 72.3 °F 29.96 in Calm     71% 0.00 in
14:47 82.8 °F 72.3 °F 29.96 in Calm     71% 0.00 in
14:52 82.4 °F 71.6 °F 29.96 in Calm   1.0 mph 70% 0.00 in
14:57 82.0 °F 72.1 °F 29.96 in Calm     72% 0.00 in
15:02 81.7 °F 72.1 °F 29.96 in Calm     73% 0.00 in
15:07 81.7 °F 71.8 °F 29.96 in Calm     72% 0.00 in
15:12 82.0 °F 72.5 °F 29.96 in Calm   1.0 mph 73% 0.00 in
15:17 82.4 °F 71.6 °F 29.96 in Calm   2.0 mph 70% 0.00 in
15:22 82.6 °F 72.1 °F 29.96 in Calm   1.0 mph 71% 0.00 in
15:28 82.0 °F 71.8 °F 29.97 in Calm     71% 0.00 in
15:33 81.9 °F 72.3 °F 29.96 in Calm     73% 0.00 in
15:38 82.2 °F 72.3 °F 29.96 in Calm     72% 0.00 in
15:43 82.8 °F 72.3 °F 29.96 in Calm     71% 0.00 in
15:48 82.9 °F 72.5 °F 29.96 in Calm     71% 0.00 in
15:53 83.1 °F 73.2 °F 29.95 in Calm     72% 0.00 in
15:58 82.8 °F 72.3 °F 29.95 in Calm     71% 0.00 in
16:03 82.2 °F 72.7 °F 29.94 in Calm     73% 0.00 in
16:08 81.9 °F 72.0 °F 29.94 in Calm     72% 0.00 in
16:13 81.9 °F 72.7 °F 29.94 in Calm     74% 0.00 in
16:18 81.9 °F 72.3 °F 29.93 in Calm     73% 0.00 in
16:23 82.2 °F 73.0 °F 29.94 in Calm   1.0 mph 74% 0.00 in
16:28 82.6 °F 72.7 °F 29.93 in Calm   1.0 mph 72% 0.00 in
16:33 82.8 °F 73.2 °F 29.93 in Calm     73% 0.00 in
16:38 82.6 °F 73.4 °F 29.93 in Calm     74% 0.00 in
16:43 82.2 °F 72.7 °F 29.93 in NNW 0.9 mph 2.0 mph 73% 0.00 in
16:48 81.7 °F 72.5 °F 29.93 in Calm   1.0 mph 74% 0.00 in
16:53 81.3 °F 72.7 °F 29.94 in Calm     75% 0.00 in
16:59 81.3 °F 73.0 °F 29.93 in Calm     76% 0.00 in
17:04 81.3 °F 71.8 °F 29.93 in Calm   3.0 mph 73% 0.00 in
17:09 81.3 °F 72.7 °F 29.93 in Calm     75% 0.00 in
17:14 81.0 °F 73.0 °F 29.93 in Calm     77% 0.00 in
17:19 80.8 °F 72.5 °F 29.93 in Calm     76% 0.00 in
17:24 80.8 °F 72.5 °F 29.93 in Calm   1.0 mph 76% 0.00 in
17:29 80.8 °F 72.9 °F 29.94 in Calm     77% 0.00 in
17:34 80.8 °F 73.6 °F 29.93 in Calm     79% 0.00 in
17:39 80.6 °F 73.4 °F 29.93 in Calm   1.0 mph 79% 0.00 in
17:44 80.4 °F 73.2 °F 29.93 in Calm   1.0 mph 79% 0.00 in
17:49 80.2 °F 73.6 °F 29.93 in Calm   1.0 mph 80% 0.00 in
17:54 80.1 °F 73.4 °F 29.93 in Calm     80% 0.00 in
17:59 80.1 °F 73.4 °F 29.93 in Calm     80% 0.00 in
18:04 80.1 °F 73.0 °F 29.93 in Calm     79% 0.00 in
18:09 80.1 °F 73.4 °F 29.93 in Calm     80% 0.00 in
18:14 80.1 °F 73.8 °F 29.93 in Calm   1.0 mph 81% 0.00 in
18:19 79.7 °F 73.0 °F 29.93 in NW 0.9 mph 1.0 mph 80% 0.00 in
18:24 79.5 °F 72.9 °F 29.93 in Calm     80% 0.00 in
18:29 79.3 °F 72.7 °F 29.93 in Calm   1.0 mph 80% 0.00 in
18:34 79.3 °F 72.7 °F 29.94 in Calm     80% 0.00 in
18:39 79.0 °F 73.0 °F 29.93 in Calm     82% 0.00 in
18:44 78.6 °F 73.4 °F 29.93 in Calm     84% 0.00 in
18:49 78.6 °F 73.4 °F 29.93 in Calm     84% 0.00 in
18:54 78.6 °F 73.4 °F 29.94 in Calm     84% 0.00 in
18:59 78.6 °F 73.8 °F 29.94 in Calm     85% 0.00 in
19:02 78.6 °F 73.8 °F 29.94 in Calm     85% 0.00 in
19:07 78.4 °F 73.6 °F 29.94 in Calm     85% 0.00 in
19:12 78.4 °F 73.6 °F 29.94 in Calm     85% 0.00 in
19:17 78.4 °F 73.9 °F 29.94 in Calm     86% 0.00 in
19:22 78.3 °F 74.1 °F 29.94 in Calm     87% 0.00 in
19:27 77.7 °F 73.6 °F 29.93 in Calm     87% 0.00 in
19:32 77.5 °F 73.4 °F 29.93 in Calm     87% 0.00 in
19:37 77.4 °F 73.6 °F 29.93 in Calm     88% 0.00 in
19:42 77.2 °F 73.4 °F 29.93 in Calm     88% 0.00 in
19:47 76.8 °F 73.0 °F 29.94 in Calm     88% 0.00 in
19:52 76.5 °F 72.3 °F 29.94 in Calm     87% 0.00 in
19:57 75.9 °F 71.8 °F 29.94 in Calm     87% 0.00 in
20:02 75.7 °F 71.6 °F 29.94 in Calm     87% 0.00 in
20:07 75.6 °F 71.8 °F 29.95 in Calm     88% 0.00 in
20:12 75.4 °F 71.2 °F 29.95 in Calm     87% 0.00 in
20:17 75.0 °F 70.9 °F 29.95 in Calm     87% 0.00 in
20:22 74.7 °F 70.9 °F 29.95 in Calm     88% 0.00 in
20:28 74.5 °F 70.7 °F 29.95 in Calm     88% 0.00 in
20:33 74.3 °F 70.9 °F 29.95 in Calm     89% 0.00 in
20:38 74.1 °F 70.7 °F 29.96 in Calm     89% 0.00 in
20:43 74.1 °F 70.7 °F 29.96 in Calm     89% 0.00 in
20:48 73.9 °F 70.9 °F 29.96 in Calm     90% 0.00 in
20:53 73.9 °F 70.9 °F 29.96 in Calm     90% 0.00 in
20:58 73.8 °F 70.7 °F 29.96 in Calm     90% 0.00 in
21:03 73.8 °F 70.7 °F 29.96 in Calm     90% 0.00 in
21:08 73.8 °F 70.9 °F 29.96 in Calm     91% 0.00 in
21:13 73.6 °F 70.7 °F 29.97 in Calm     91% 0.00 in
21:18 73.6 °F 70.7 °F 29.97 in Calm   1.0 mph 91% 0.00 in
21:30 73.6 °F 70.7 °F 29.98 in Calm     91% 0.00 in
21:35 73.6 °F 70.7 °F 29.98 in Calm     91% 0.00 in
21:40 73.4 °F 70.5 °F 29.98 in Calm   1.0 mph 91% 0.00 in
21:45 73.2 °F 70.2 °F 29.98 in Calm   1.0 mph 90% 0.00 in
21:50 73.4 °F 70.3 °F 29.98 in Calm     90% 0.00 in
21:55 73.4 °F 70.3 °F 29.98 in Calm     90% 0.00 in
22:00 73.4 °F 70.3 °F 29.98 in Calm     90% 0.00 in
22:05 73.4 °F 70.3 °F 29.98 in Calm   1.0 mph 90% 0.00 in
22:10 73.2 °F 70.2 °F 29.98 in Calm   1.0 mph 90% 0.00 in
22:15 73.2 °F 70.5 °F 29.98 in Calm   1.0 mph 91% 0.00 in
22:16 73.2 °F 70.5 °F 29.98 in Calm   1.0 mph 91% 0.00 in
22:21 73.2 °F 70.2 °F 29.99 in Calm     90% 0.00 in
22:26 73.2 °F 70.2 °F 29.99 in Calm     90% 0.00 in
22:31 73.2 °F 70.2 °F 29.99 in Calm   1.0 mph 90% 0.00 in
22:36 73.0 °F 70.0 °F 29.99 in Calm     90% 0.00 in
22:41 73.0 °F 70.0 °F 29.99 in Calm   1.0 mph 90% 0.00 in
22:46 73.0 °F 70.0 °F 30.00 in Calm     90% 0.00 in
22:51 72.9 °F 70.2 °F 29.99 in Calm     91% 0.00 in
22:56 72.9 °F 69.8 °F 29.99 in Calm     90% 0.00 in
23:01 72.9 °F 69.8 °F 29.99 in Calm     90% 0.00 in
23:06 72.9 °F 70.2 °F 30.00 in NNW 0.9 mph 1.0 mph 91% 0.00 in
23:13 72.9 °F 70.2 °F 30.00 in SE 0.9 mph 1.0 mph 91% 0.00 in
23:18 72.9 °F 70.2 °F 30.00 in Calm     91% 0.00 in
23:23 72.7 °F 70.2 °F 30.00 in Calm   3.0 mph 92% 0.00 in
23:24 72.7 °F 70.2 °F 30.00 in Calm   1.0 mph 92% 0.00 in
23:29 72.5 °F 69.8 °F 29.99 in Calm     91% 0.00 in
23:34 72.5 °F 69.4 °F 29.99 in Calm   1.0 mph 90% 0.00 in
23:39 72.7 °F 69.6 °F 29.99 in Calm   1.0 mph 90% 0.00 in
23:44 72.7 °F 69.6 °F 29.99 in Calm   1.0 mph 90% 0.00 in
23:49 72.5 °F 69.4 °F 29.99 in Calm     90% 0.00 in
23:55 72.5 °F 69.8 °F 29.98 in Calm     91% 0.00 in
WheeWeather.com
Compliments of Weather Underground - 3.75 mb